sensor_id;sensor_type;location;lat;lon;timestamp;temperature;humidity
9083;DHT22;4577;48.704;9.000;2023-10-13T00:01:01;19.60;54.00
9083;DHT22;4577;48.704;9.000;2023-10-13T00:06:00;19.50;53.60
9083;DHT22;4577;48.704;9.000;2023-10-13T00:08:29;19.50;53.40
9083;DHT22;4577;48.704;9.000;2023-10-13T00:10:55;19.60;53.30
9083;DHT22;4577;48.704;9.000;2023-10-13T00:18:35;19.40;52.90
9083;DHT22;4577;48.704;9.000;2023-10-13T00:21:08;19.30;52.70
9083;DHT22;4577;48.704;9.000;2023-10-13T00:23:53;19.30;52.30
9083;DHT22;4577;48.704;9.000;2023-10-13T00:26:22;19.30;52.50
9083;DHT22;4577;48.704;9.000;2023-10-13T00:29:03;19.30;52.50
9083;DHT22;4577;48.704;9.000;2023-10-13T00:31:41;19.30;52.50
9083;DHT22;4577;48.704;9.000;2023-10-13T00:34:12;20.70;53.80
9083;DHT22;4577;48.704;9.000;2023-10-13T00:36:45;19.50;52.80
9083;DHT22;4577;48.704;9.000;2023-10-13T00:41:42;19.30;53.10
9083;DHT22;4577;48.704;9.000;2023-10-13T00:44:20;19.30;53.00
9083;DHT22;4577;48.704;9.000;2023-10-13T00:46:54;19.20;52.90
9083;DHT22;4577;48.704;9.000;2023-10-13T00:54:15;18.90;53.50
9083;DHT22;4577;48.704;9.000;2023-10-13T00:56:46;19.00;53.80
9083;DHT22;4577;48.704;9.000;2023-10-13T00:59:17;18.70;54.00
9083;DHT22;4577;48.704;9.000;2023-10-13T01:01:43;19.30;54.70
9083;DHT22;4577;48.704;9.000;2023-10-13T01:04:10;19.10;53.80
9083;DHT22;4577;48.704;9.000;2023-10-13T01:06:39;19.20;53.70
9083;DHT22;4577;48.704;9.000;2023-10-13T01:09:07;19.20;53.60
9083;DHT22;4577;48.704;9.000;2023-10-13T01:11:39;19.00;53.70
9083;DHT22;4577;48.704;9.000;2023-10-13T01:16:31;18.90;53.90
9083;DHT22;4577;48.704;9.000;2023-10-13T01:18:57;18.80;53.90
9083;DHT22;4577;48.704;9.000;2023-10-13T01:23:53;19.00;53.80
9083;DHT22;4577;48.704;9.000;2023-10-13T01:26:19;18.80;54.00
9083;DHT22;4577;48.704;9.000;2023-10-13T01:28:57;18.80;53.80
9083;DHT22;4577;48.704;9.000;2023-10-13T01:31:23;18.90;54.80
9083;DHT22;4577;48.704;9.000;2023-10-13T01:36:25;18.70;55.60
9083;DHT22;4577;48.704;9.000;2023-10-13T01:41:20;18.50;56.70
9083;DHT22;4577;48.704;9.000;2023-10-13T01:43:46;18.40;56.40
9083;DHT22;4577;48.704;9.000;2023-10-13T01:46:11;18.60;56.50
9083;DHT22;4577;48.704;9.000;2023-10-13T01:48:41;18.50;57.30
9083;DHT22;4577;48.704;9.000;2023-10-13T01:51:09;18.50;56.90
9083;DHT22;4577;48.704;9.000;2023-10-13T01:56:05;18.50;57.40
9083;DHT22;4577;48.704;9.000;2023-10-13T02:01:02;18.20;58.40
9083;DHT22;4577;48.704;9.000;2023-10-13T02:03:33;18.20;58.60
9083;DHT22;4577;48.704;9.000;2023-10-13T02:05:58;18.10;58.80
9083;DHT22;4577;48.704;9.000;2023-10-13T02:08:29;18.50;58.80
9083;DHT22;4577;48.704;9.000;2023-10-13T02:10:56;18.20;59.00
9083;DHT22;4577;48.704;9.000;2023-10-13T02:13:25;18.10;59.00
9083;DHT22;4577;48.704;9.000;2023-10-13T02:15:55;17.90;59.00
9083;DHT22;4577;48.704;9.000;2023-10-13T02:23:40;17.90;59.60
9083;DHT22;4577;48.704;9.000;2023-10-13T02:26:13;17.90;59.70
9083;DHT22;4577;48.704;9.000;2023-10-13T02:31:23;17.70;59.70
9083;DHT22;4577;48.704;9.000;2023-10-13T02:33:50;17.70;60.00
9083;DHT22;4577;48.704;9.000;2023-10-13T02:38:49;17.60;60.30
9083;DHT22;4577;48.704;9.000;2023-10-13T02:41:19;17.80;60.30
9083;DHT22;4577;48.704;9.000;2023-10-13T02:43:52;17.90;60.30
9083;DHT22;4577;48.704;9.000;2023-10-13T02:48:47;17.80;60.40
9083;DHT22;4577;48.704;9.000;2023-10-13T02:51:18;17.70;60.60
9083;DHT22;4577;48.704;9.000;2023-10-13T02:53:45;17.80;60.60
9083;DHT22;4577;48.704;9.000;2023-10-13T02:56:14;17.70;60.80
9083;DHT22;4577;48.704;9.000;2023-10-13T02:58:47;17.60;62.10
9083;DHT22;4577;48.704;9.000;2023-10-13T03:01:19;17.50;62.20
9083;DHT22;4577;48.704;9.000;2023-10-13T03:03:50;17.60;61.70
9083;DHT22;4577;48.704;9.000;2023-10-13T03:13:57;17.70;61.30
9083;DHT22;4577;48.704;9.000;2023-10-13T03:16:23;17.70;60.50
9083;DHT22;4577;48.704;9.000;2023-10-13T03:21:23;17.60;60.70
9083;DHT22;4577;48.704;9.000;2023-10-13T03:26:22;17.80;61.00
9083;DHT22;4577;48.704;9.000;2023-10-13T03:28:47;17.60;60.60
9083;DHT22;4577;48.704;9.000;2023-10-13T03:31:19;17.60;60.70
9083;DHT22;4577;48.704;9.000;2023-10-13T03:36:14;17.60;60.70
9083;DHT22;4577;48.704;9.000;2023-10-13T03:41:26;17.40;61.00
9083;DHT22;4577;48.704;9.000;2023-10-13T03:46:34;17.30;60.90
9083;DHT22;4577;48.704;9.000;2023-10-13T03:49:02;17.60;61.30
9083;DHT22;4577;48.704;9.000;2023-10-13T03:51:31;17.50;61.30
9083;DHT22;4577;48.704;9.000;2023-10-13T03:56:25;17.40;61.00
9083;DHT22;4577;48.704;9.000;2023-10-13T03:58:55;17.20;61.10
9083;DHT22;4577;48.704;9.000;2023-10-13T04:04:00;17.50;61.10
9083;DHT22;4577;48.704;9.000;2023-10-13T04:09:16;17.50;60.00
9083;DHT22;4577;48.704;9.000;2023-10-13T04:12:08;17.30;60.20
9083;DHT22;4577;48.704;9.000;2023-10-13T04:17:25;17.30;60.00
9083;DHT22;4577;48.704;9.000;2023-10-13T04:19:58;17.20;60.40
9083;DHT22;4577;48.704;9.000;2023-10-13T04:22:41;17.40;59.90
9083;DHT22;4577;48.704;9.000;2023-10-13T04:27:57;17.30;60.00
9083;DHT22;4577;48.704;9.000;2023-10-13T04:30:46;17.20;60.40
9083;DHT22;4577;48.704;9.000;2023-10-13T04:33:18;17.30;60.60
9083;DHT22;4577;48.704;9.000;2023-10-13T04:38:48;17.40;60.80
9083;DHT22;4577;48.704;9.000;2023-10-13T04:41:39;17.10;60.50
9083;DHT22;4577;48.704;9.000;2023-10-13T04:49:20;17.00;60.70
9083;DHT22;4577;48.704;9.000;2023-10-13T04:57:58;16.70;61.10
9083;DHT22;4577;48.704;9.000;2023-10-13T05:09:05;17.00;58.00
9083;DHT22;4577;48.704;9.000;2023-10-13T05:14:36;17.10;57.90
9083;DHT22;4577;48.704;9.000;2023-10-13T05:25:35;16.70;57.10
9083;DHT22;4577;48.704;9.000;2023-10-13T05:33:49;17.60;58.10
9083;DHT22;4577;48.704;9.000;2023-10-13T05:36:34;17.10;57.50
9083;DHT22;4577;48.704;9.000;2023-10-13T05:42:03;16.90;57.80
9083;DHT22;4577;48.704;9.000;2023-10-13T05:44:47;17.00;57.70
9083;DHT22;4577;48.704;9.000;2023-10-13T06:06:20;17.10;57.30
9083;DHT22;4577;48.704;9.000;2023-10-13T06:11:49;17.40;57.70
9083;DHT22;4577;48.704;9.000;2023-10-13T06:22:48;17.30;57.00
9083;DHT22;4577;48.704;9.000;2023-10-13T06:33:28;17.50;57.00
9083;DHT22;4577;48.704;9.000;2023-10-13T06:36:00;17.80;56.90
9083;DHT22;4577;48.704;9.000;2023-10-13T06:38:26;17.40;56.50
9083;DHT22;4577;48.704;9.000;2023-10-13T06:43:23;17.50;56.40
9083;DHT22;4577;48.704;9.000;2023-10-13T06:51:00;17.50;56.70
9083;DHT22;4577;48.704;9.000;2023-10-13T06:56:06;17.50;56.90
9083;DHT22;4577;48.704;9.000;2023-10-13T07:00:58;17.50;56.90
9083;DHT22;4577;48.704;9.000;2023-10-13T07:05:51;17.50;57.10
9083;DHT22;4577;48.704;9.000;2023-10-13T07:10:48;17.70;57.00
9083;DHT22;4577;48.704;9.000;2023-10-13T07:13:27;17.80;57.40
9083;DHT22;4577;48.704;9.000;2023-10-13T07:15:53;17.90;57.30
9083;DHT22;4577;48.704;9.000;2023-10-13T07:23:23;17.80;56.90
9083;DHT22;4577;48.704;9.000;2023-10-13T07:25:56;18.00;57.00
9083;DHT22;4577;48.704;9.000;2023-10-13T07:28:32;17.90;56.80
9083;DHT22;4577;48.704;9.000;2023-10-13T07:31:04;18.00;56.80
9083;DHT22;4577;48.704;9.000;2023-10-13T07:36:01;18.00;56.60
9083;DHT22;4577;48.704;9.000;2023-10-13T07:48:36;18.10;56.00
9083;DHT22;4577;48.704;9.000;2023-10-13T07:51:04;18.10;55.80
9083;DHT22;4577;48.704;9.000;2023-10-13T07:53:31;18.20;55.60
9083;DHT22;4577;48.704;9.000;2023-10-13T07:58:31;18.20;55.00
9083;DHT22;4577;48.704;9.000;2023-10-13T08:00:59;18.60;55.20
9083;DHT22;4577;48.704;9.000;2023-10-13T08:03:26;18.30;54.70
9083;DHT22;4577;48.704;9.000;2023-10-13T08:06:00;18.40;54.20
9083;DHT22;4577;48.704;9.000;2023-10-13T08:16:30;18.90;53.10
9083;DHT22;4577;48.704;9.000;2023-10-13T08:21:47;19.00;52.60
9083;DHT22;4577;48.704;9.000;2023-10-13T08:24:39;18.90;52.70
9083;DHT22;4577;48.704;9.000;2023-10-13T08:27:06;19.30;52.90
9083;DHT22;4577;48.704;9.000;2023-10-13T08:45:30;19.70;50.50
9083;DHT22;4577;48.704;9.000;2023-10-13T08:47:58;19.70;49.90
9083;DHT22;4577;48.704;9.000;2023-10-13T08:53:16;19.80;49.10
9083;DHT22;4577;48.704;9.000;2023-10-13T08:55:56;20.00;48.90
9083;DHT22;4577;48.704;9.000;2023-10-13T09:01:14;20.00;49.50
9083;DHT22;4577;48.704;9.000;2023-10-13T09:06:57;20.20;49.10
9083;DHT22;4577;48.704;9.000;2023-10-13T09:12:29;20.30;48.50
9083;DHT22;4577;48.704;9.000;2023-10-13T09:17:32;20.50;47.90
9083;DHT22;4577;48.704;9.000;2023-10-13T09:20:09;20.40;48.10
9083;DHT22;4577;48.704;9.000;2023-10-13T09:22:48;20.60;47.00
9083;DHT22;4577;48.704;9.000;2023-10-13T09:25:35;20.70;47.10
9083;DHT22;4577;48.704;9.000;2023-10-13T09:28:16;20.80;47.00
9083;DHT22;4577;48.704;9.000;2023-10-13T09:30:51;20.80;46.50
9083;DHT22;4577;48.704;9.000;2023-10-13T09:33:27;21.20;46.50
9083;DHT22;4577;48.704;9.000;2023-10-13T09:36:08;20.70;46.40
9083;DHT22;4577;48.704;9.000;2023-10-13T09:38:35;21.10;46.50
9083;DHT22;4577;48.704;9.000;2023-10-13T09:41:05;21.00;47.10
9083;DHT22;4577;48.704;9.000;2023-10-13T09:46:27;21.10;47.00
9083;DHT22;4577;48.704;9.000;2023-10-13T09:49:09;21.00;47.50
9083;DHT22;4577;48.704;9.000;2023-10-13T09:51:40;21.10;47.80
9083;DHT22;4577;48.704;9.000;2023-10-13T09:54:29;21.20;49.10
9083;DHT22;4577;48.704;9.000;2023-10-13T09:57:00;21.30;48.00
9083;DHT22;4577;48.704;9.000;2023-10-13T09:59:35;21.30;47.60
9083;DHT22;4577;48.704;9.000;2023-10-13T10:02:09;21.30;47.80
9083;DHT22;4577;48.704;9.000;2023-10-13T10:04:38;21.30;47.80
9083;DHT22;4577;48.704;9.000;2023-10-13T10:07:29;16.90;42.80
9083;DHT22;4577;48.704;9.000;2023-10-13T10:10:00;21.70;47.60
9083;DHT22;4577;48.704;9.000;2023-10-13T10:12:48;21.90;45.70
9083;DHT22;4577;48.704;9.000;2023-10-13T10:15:34;22.10;46.30
9083;DHT22;4577;48.704;9.000;2023-10-13T10:18:02;21.90;45.30
9083;DHT22;4577;48.704;9.000;2023-10-13T10:20:37;22.00;45.70
9083;DHT22;4577;48.704;9.000;2023-10-13T10:25:47;22.30;45.50
9083;DHT22;4577;48.704;9.000;2023-10-13T10:33:09;22.60;45.40
9083;DHT22;4577;48.704;9.000;2023-10-13T10:35:43;22.30;45.50
9083;DHT22;4577;48.704;9.000;2023-10-13T10:38:18;22.30;45.40
9083;DHT22;4577;48.704;9.000;2023-10-13T10:46:25;22.40;46.00
9083;DHT22;4577;48.704;9.000;2023-10-13T10:51:22;22.50;44.80
9083;DHT22;4577;48.704;9.000;2023-10-13T10:53:52;22.50;44.70
9083;DHT22;4577;48.704;9.000;2023-10-13T10:56:22;22.60;44.70
9083;DHT22;4577;48.704;9.000;2023-10-13T11:01:44;22.80;44.30
9083;DHT22;4577;48.704;9.000;2023-10-13T11:04:14;22.70;44.10
9083;DHT22;4577;48.704;9.000;2023-10-13T11:15:05;22.90;43.40
9083;DHT22;4577;48.704;9.000;2023-10-13T11:20:16;23.10;42.70
9083;DHT22;4577;48.704;9.000;2023-10-13T11:22:49;23.10;42.90
9083;DHT22;4577;48.704;9.000;2023-10-13T11:25:29;23.10;43.30
9083;DHT22;4577;48.704;9.000;2023-10-13T11:27:56;23.10;43.30
9083;DHT22;4577;48.704;9.000;2023-10-13T11:30:24;22.80;44.10
9083;DHT22;4577;48.704;9.000;2023-10-13T11:33:05;23.20;43.50
9083;DHT22;4577;48.704;9.000;2023-10-13T11:35:41;23.10;43.40
9083;DHT22;4577;48.704;9.000;2023-10-13T11:38:30;23.20;42.60
9083;DHT22;4577;48.704;9.000;2023-10-13T11:41:14;23.30;42.60
9083;DHT22;4577;48.704;9.000;2023-10-13T11:43:47;23.70;42.20
9083;DHT22;4577;48.704;9.000;2023-10-13T11:46:25;23.30;42.40
9083;DHT22;4577;48.704;9.000;2023-10-13T11:49:05;23.60;43.00
9083;DHT22;4577;48.704;9.000;2023-10-13T12:01:27;23.70;42.20
9083;DHT22;4577;48.704;9.000;2023-10-13T12:04:16;23.30;41.90
9083;DHT22;4577;48.704;9.000;2023-10-13T12:07:00;23.50;42.50
9083;DHT22;4577;48.704;9.000;2023-10-13T12:09:53;23.30;42.00
9083;DHT22;4577;48.704;9.000;2023-10-13T12:12:18;23.90;42.30
9083;DHT22;4577;48.704;9.000;2023-10-13T12:14:44;23.90;42.50
9083;DHT22;4577;48.704;9.000;2023-10-13T12:17:28;23.80;43.10
9083;DHT22;4577;48.704;9.000;2023-10-13T12:19:57;23.60;42.30
9083;DHT22;4577;48.704;9.000;2023-10-13T12:25:01;23.70;41.80
9083;DHT22;4577;48.704;9.000;2023-10-13T12:27:30;23.90;41.30
9083;DHT22;4577;48.704;9.000;2023-10-13T12:30:11;23.80;41.00
9083;DHT22;4577;48.704;9.000;2023-10-13T12:32:40;24.30;41.20
9083;DHT22;4577;48.704;9.000;2023-10-13T12:35:10;23.60;41.00
9083;DHT22;4577;48.704;9.000;2023-10-13T12:45:45;24.80;37.50
9083;DHT22;4577;48.704;9.000;2023-10-13T12:51:15;24.60;37.50
9083;DHT22;4577;48.704;9.000;2023-10-13T12:59:08;24.40;36.40
9083;DHT22;4577;48.704;9.000;2023-10-13T13:06:37;25.00;35.40
9083;DHT22;4577;48.704;9.000;2023-10-13T13:09:05;24.70;35.80
9083;DHT22;4577;48.704;9.000;2023-10-13T13:11:35;25.20;35.20
9083;DHT22;4577;48.704;9.000;2023-10-13T13:26:29;25.30;33.90
9083;DHT22;4577;48.704;9.000;2023-10-13T13:28:56;25.10;34.10
9083;DHT22;4577;48.704;9.000;2023-10-13T13:31:23;25.20;34.10
9083;DHT22;4577;48.704;9.000;2023-10-13T13:33:55;25.50;34.30
9083;DHT22;4577;48.704;9.000;2023-10-13T13:38:48;25.70;33.60
9083;DHT22;4577;48.704;9.000;2023-10-13T13:41:20;25.90;33.10
9083;DHT22;4577;48.704;9.000;2023-10-13T13:43:48;25.50;33.30
9083;DHT22;4577;48.704;9.000;2023-10-13T13:48:53;25.20;34.00
9083;DHT22;4577;48.704;9.000;2023-10-13T13:51:32;25.20;35.10
9083;DHT22;4577;48.704;9.000;2023-10-13T13:58:54;25.20;34.10
9083;DHT22;4577;48.704;9.000;2023-10-13T14:03:49;20.90;29.20
9083;DHT22;4577;48.704;9.000;2023-10-13T14:06:22;25.60;32.30
9083;DHT22;4577;48.704;9.000;2023-10-13T14:08:58;25.40;32.20
9083;DHT22;4577;48.704;9.000;2023-10-13T14:11:40;25.60;32.00
9083;DHT22;4577;48.704;9.000;2023-10-13T14:14:14;25.60;32.20
9083;DHT22;4577;48.704;9.000;2023-10-13T14:16:52;25.40;32.20
9083;DHT22;4577;48.704;9.000;2023-10-13T14:19:19;25.40;31.50
9083;DHT22;4577;48.704;9.000;2023-10-13T14:21:58;25.50;32.70
9083;DHT22;4577;48.704;9.000;2023-10-13T14:26:56;25.40;30.50
9083;DHT22;4577;48.704;9.000;2023-10-13T14:29:24;25.30;32.20
9083;DHT22;4577;48.704;9.000;2023-10-13T14:31:52;25.00;32.30
9083;DHT22;4577;48.704;9.000;2023-10-13T14:34:19;25.40;31.60
9083;DHT22;4577;48.704;9.000;2023-10-13T14:36:47;25.20;30.80
9083;DHT22;4577;48.704;9.000;2023-10-13T14:39:14;25.60;31.30
9083;DHT22;4577;48.704;9.000;2023-10-13T14:41:40;25.40;30.40
9083;DHT22;4577;48.704;9.000;2023-10-13T14:46:33;25.80;29.90
9083;DHT22;4577;48.704;9.000;2023-10-13T14:53:58;25.60;30.30
9083;DHT22;4577;48.704;9.000;2023-10-13T14:56:26;25.50;30.50
9083;DHT22;4577;48.704;9.000;2023-10-13T14:58:54;25.40;29.50
9083;DHT22;4577;48.704;9.000;2023-10-13T15:01:21;25.40;29.70
9083;DHT22;4577;48.704;9.000;2023-10-13T15:03:49;25.20;29.40
9083;DHT22;4577;48.704;9.000;2023-10-13T15:11:15;25.30;29.20
9083;DHT22;4577;48.704;9.000;2023-10-13T15:13:43;25.50;28.60
9083;DHT22;4577;48.704;9.000;2023-10-13T15:16:27;25.40;28.90
9083;DHT22;4577;48.704;9.000;2023-10-13T15:21:23;25.30;28.70
9083;DHT22;4577;48.704;9.000;2023-10-13T15:23:56;25.80;28.00
9083;DHT22;4577;48.704;9.000;2023-10-13T15:26:29;25.50;27.90
9083;DHT22;4577;48.704;9.000;2023-10-13T15:31:22;25.30;27.50
9083;DHT22;4577;48.704;9.000;2023-10-13T15:34:01;25.40;26.50
9083;DHT22;4577;48.704;9.000;2023-10-13T15:41:27;25.50;27.00
9083;DHT22;4577;48.704;9.000;2023-10-13T15:43:53;25.60;26.80
9083;DHT22;4577;48.704;9.000;2023-10-13T15:46:23;25.70;27.70
9083;DHT22;4577;48.704;9.000;2023-10-13T15:48:50;25.20;27.60
9083;DHT22;4577;48.704;9.000;2023-10-13T15:51:16;25.00;27.20
9083;DHT22;4577;48.704;9.000;2023-10-13T15:56:09;25.10;27.30
9083;DHT22;4577;48.704;9.000;2023-10-13T16:03:34;24.90;26.90
9083;DHT22;4577;48.704;9.000;2023-10-13T16:06:03;25.00;27.00
9083;DHT22;4577;48.704;9.000;2023-10-13T16:08:36;24.90;28.40
9083;DHT22;4577;48.704;9.000;2023-10-13T16:11:06;24.90;28.90
9083;DHT22;4577;48.704;9.000;2023-10-13T16:13:35;24.90;28.70
9083;DHT22;4577;48.704;9.000;2023-10-13T16:16:02;24.70;29.20
9083;DHT22;4577;48.704;9.000;2023-10-13T16:18:28;24.60;29.00
9083;DHT22;4577;48.704;9.000;2023-10-13T16:20:59;24.50;29.00
9083;DHT22;4577;48.704;9.000;2023-10-13T16:25:51;24.60;28.70
9083;DHT22;4577;48.704;9.000;2023-10-13T16:35:35;24.50;29.50
9083;DHT22;4577;48.704;9.000;2023-10-13T16:38:01;23.90;29.50
9083;DHT22;4577;48.704;9.000;2023-10-13T16:47:56;24.20;29.80
9083;DHT22;4577;48.704;9.000;2023-10-13T16:55:17;24.10;29.80
9083;DHT22;4577;48.704;9.000;2023-10-13T16:57:44;24.00;29.80
9083;DHT22;4577;48.704;9.000;2023-10-13T17:00:11;23.80;29.90
9083;DHT22;4577;48.704;9.000;2023-10-13T17:02:38;23.80;30.00
9083;DHT22;4577;48.704;9.000;2023-10-13T17:05:09;23.90;30.20
9083;DHT22;4577;48.704;9.000;2023-10-13T17:07:35;23.80;30.10
9083;DHT22;4577;48.704;9.000;2023-10-13T17:12:27;23.80;31.00
9083;DHT22;4577;48.704;9.000;2023-10-13T17:17:24;23.80;31.20
9083;DHT22;4577;48.704;9.000;2023-10-13T17:24:43;23.60;31.80
9083;DHT22;4577;48.704;9.000;2023-10-13T17:32:02;23.60;32.60
9083;DHT22;4577;48.704;9.000;2023-10-13T17:34:28;23.40;33.30
9083;DHT22;4577;48.704;9.000;2023-10-13T17:39:24;23.30;34.00
9083;DHT22;4577;48.704;9.000;2023-10-13T17:41:50;23.40;34.70
9083;DHT22;4577;48.704;9.000;2023-10-13T17:44:17;23.00;35.10
9083;DHT22;4577;48.704;9.000;2023-10-13T17:46:43;23.10;35.70
9083;DHT22;4577;48.704;9.000;2023-10-13T17:51:35;23.30;35.60
9083;DHT22;4577;48.704;9.000;2023-10-13T17:58:53;23.60;37.70
9083;DHT22;4577;48.704;9.000;2023-10-13T18:01:19;23.10;37.80
9083;DHT22;4577;48.704;9.000;2023-10-13T18:03:53;23.20;37.80
9083;DHT22;4577;48.704;9.000;2023-10-13T18:06:23;23.20;38.20
9083;DHT22;4577;48.704;9.000;2023-10-13T18:08:53;23.10;38.00
9083;DHT22;4577;48.704;9.000;2023-10-13T18:11:21;22.90;38.10
9083;DHT22;4577;48.704;9.000;2023-10-13T18:13:51;23.10;38.90
9083;DHT22;4577;48.704;9.000;2023-10-13T18:16:22;22.90;39.20
9083;DHT22;4577;48.704;9.000;2023-10-13T18:21:16;22.90;39.40
9083;DHT22;4577;48.704;9.000;2023-10-13T18:23:49;22.90;39.20
9083;DHT22;4577;48.704;9.000;2023-10-13T18:28:42;22.60;40.00
9083;DHT22;4577;48.704;9.000;2023-10-13T18:31:07;22.70;40.30
9083;DHT22;4577;48.704;9.000;2023-10-13T18:33:37;22.70;40.30
9083;DHT22;4577;48.704;9.000;2023-10-13T18:36:20;22.60;40.60
9083;DHT22;4577;48.704;9.000;2023-10-13T18:38:50;22.50;40.20
9083;DHT22;4577;48.704;9.000;2023-10-13T18:41:19;22.90;41.20
9083;DHT22;4577;48.704;9.000;2023-10-13T18:43:48;22.40;40.30
9083;DHT22;4577;48.704;9.000;2023-10-13T18:46:19;22.60;40.90
9083;DHT22;4577;48.704;9.000;2023-10-13T18:48:47;22.50;41.10
9083;DHT22;4577;48.704;9.000;2023-10-13T18:51:15;22.40;42.10
9083;DHT22;4577;48.704;9.000;2023-10-13T18:53:42;22.50;43.20
9083;DHT22;4577;48.704;9.000;2023-10-13T18:56:16;22.60;41.20
9083;DHT22;4577;48.704;9.000;2023-10-13T18:58:47;22.30;40.60
9083;DHT22;4577;48.704;9.000;2023-10-13T19:01:23;22.50;41.00
9083;DHT22;4577;48.704;9.000;2023-10-13T19:03:58;22.40;40.60
9083;DHT22;4577;48.704;9.000;2023-10-13T19:06:25;21.80;39.80
9083;DHT22;4577;48.704;9.000;2023-10-13T19:08:54;22.50;40.70
9083;DHT22;4577;48.704;9.000;2023-10-13T19:11:20;22.30;40.40
9083;DHT22;4577;48.704;9.000;2023-10-13T19:13:47;22.30;40.20
9083;DHT22;4577;48.704;9.000;2023-10-13T19:18:42;22.00;39.60
9083;DHT22;4577;48.704;9.000;2023-10-13T19:21:12;22.60;39.70
9083;DHT22;4577;48.704;9.000;2023-10-13T19:23:52;22.30;39.50
9083;DHT22;4577;48.704;9.000;2023-10-13T19:26:26;22.30;39.60
9083;DHT22;4577;48.704;9.000;2023-10-13T19:28:54;22.00;39.10
9083;DHT22;4577;48.704;9.000;2023-10-13T19:31:24;22.10;38.80
9083;DHT22;4577;48.704;9.000;2023-10-13T19:33:52;22.10;38.60
9083;DHT22;4577;48.704;9.000;2023-10-13T19:36:19;22.10;38.50
9083;DHT22;4577;48.704;9.000;2023-10-13T19:38:49;22.00;38.20
9083;DHT22;4577;48.704;9.000;2023-10-13T19:41:23;21.90;38.00
9083;DHT22;4577;48.704;9.000;2023-10-13T19:43:54;22.00;37.90
9083;DHT22;4577;48.704;9.000;2023-10-13T19:46:26;22.00;38.10
9083;DHT22;4577;48.704;9.000;2023-10-13T19:48:52;22.00;38.00
9083;DHT22;4577;48.704;9.000;2023-10-13T19:51:18;22.00;37.80
9083;DHT22;4577;48.704;9.000;2023-10-13T19:53:52;21.90;37.90
9083;DHT22;4577;48.704;9.000;2023-10-13T19:56:19;21.90;37.80
9083;DHT22;4577;48.704;9.000;2023-10-13T19:58:46;22.20;37.90
9083;DHT22;4577;48.704;9.000;2023-10-13T20:01:15;21.90;37.70
9083;DHT22;4577;48.704;9.000;2023-10-13T20:03:43;21.80;37.20
9083;DHT22;4577;48.704;9.000;2023-10-13T20:06:09;21.90;37.60
9083;DHT22;4577;48.704;9.000;2023-10-13T20:08:36;21.90;37.70
9083;DHT22;4577;48.704;9.000;2023-10-13T20:11:08;22.00;37.70
9083;DHT22;4577;48.704;9.000;2023-10-13T20:13:41;21.90;37.30
9083;DHT22;4577;48.704;9.000;2023-10-13T20:16:06;21.90;37.60
9083;DHT22;4577;48.704;9.000;2023-10-13T20:18:36;21.80;37.00
9083;DHT22;4577;48.704;9.000;2023-10-13T20:21:02;21.80;37.20
9083;DHT22;4577;48.704;9.000;2023-10-13T20:25:57;21.80;37.10
9083;DHT22;4577;48.704;9.000;2023-10-13T20:28:23;21.40;36.70
9083;DHT22;4577;48.704;9.000;2023-10-13T20:33:17;21.70;36.20
9083;DHT22;4577;48.704;9.000;2023-10-13T20:35:49;21.80;35.40
9083;DHT22;4577;48.704;9.000;2023-10-13T20:38:22;21.80;34.80
9083;DHT22;4577;48.704;9.000;2023-10-13T20:40:58;21.80;33.80
9083;DHT22;4577;48.704;9.000;2023-10-13T20:45:51;22.30;34.50
9083;DHT22;4577;48.704;9.000;2023-10-13T20:48:17;21.90;33.30
9083;DHT22;4577;48.704;9.000;2023-10-13T20:50:43;21.60;33.00
9083;DHT22;4577;48.704;9.000;2023-10-13T20:58:03;21.70;33.30
9083;DHT22;4577;48.704;9.000;2023-10-13T21:02:55;21.60;32.50
9083;DHT22;4577;48.704;9.000;2023-10-13T21:05:22;21.70;32.40
9083;DHT22;4577;48.704;9.000;2023-10-13T21:07:52;21.70;31.80
9083;DHT22;4577;48.704;9.000;2023-10-13T21:12:44;21.90;32.20
9083;DHT22;4577;48.704;9.000;2023-10-13T21:15:13;21.70;31.60
9083;DHT22;4577;48.704;9.000;2023-10-13T21:20:08;21.60;31.20
9083;DHT22;4577;48.704;9.000;2023-10-13T21:22:40;21.60;32.00
9083;DHT22;4577;48.704;9.000;2023-10-13T21:32:24;21.30;32.20
9083;DHT22;4577;48.704;9.000;2023-10-13T21:34:50;21.60;32.00
9083;DHT22;4577;48.704;9.000;2023-10-13T21:39:42;21.30;32.20
9083;DHT22;4577;48.704;9.000;2023-10-13T21:44:33;21.30;32.40
9083;DHT22;4577;48.704;9.000;2023-10-13T21:49:26;21.20;32.50
9083;DHT22;4577;48.704;9.000;2023-10-13T21:54:17;21.10;32.40
9083;DHT22;4577;48.704;9.000;2023-10-13T21:59:09;21.10;32.70
9083;DHT22;4577;48.704;9.000;2023-10-13T22:01:36;21.20;33.50
9083;DHT22;4577;48.704;9.000;2023-10-13T22:06:36;21.00;32.70
9083;DHT22;4577;48.704;9.000;2023-10-13T22:09:03;21.10;32.90
9083;DHT22;4577;48.704;9.000;2023-10-13T22:14:04;21.00;33.00
9083;DHT22;4577;48.704;9.000;2023-10-13T22:16:37;21.00;33.30
9083;DHT22;4577;48.704;9.000;2023-10-13T22:19:04;21.10;33.40
9083;DHT22;4577;48.704;9.000;2023-10-13T22:21:29;21.20;33.60
9083;DHT22;4577;48.704;9.000;2023-10-13T22:38:57;21.50;34.60
9083;DHT22;4577;48.704;9.000;2023-10-13T22:41:25;21.20;34.30
9083;DHT22;4577;48.704;9.000;2023-10-13T22:43:52;21.50;34.60
9083;DHT22;4577;48.704;9.000;2023-10-13T22:46:18;21.20;35.00
9083;DHT22;4577;48.704;9.000;2023-10-13T22:48:47;21.20;35.10
9083;DHT22;4577;48.704;9.000;2023-10-13T22:51:13;21.60;34.90
9083;DHT22;4577;48.704;9.000;2023-10-13T22:53:40;21.60;35.10
9083;DHT22;4577;48.704;9.000;2023-10-13T22:56:06;21.30;35.00
9083;DHT22;4577;48.704;9.000;2023-10-13T22:58:31;21.10;35.00
9083;DHT22;4577;48.704;9.000;2023-10-13T23:01:00;21.00;35.20
9083;DHT22;4577;48.704;9.000;2023-10-13T23:03:28;21.20;35.10
9083;DHT22;4577;48.704;9.000;2023-10-13T23:06:04;21.00;35.50
9083;DHT22;4577;48.704;9.000;2023-10-13T23:08:33;20.90;35.70
9083;DHT22;4577;48.704;9.000;2023-10-13T23:11:03;21.00;35.90
9083;DHT22;4577;48.704;9.000;2023-10-13T23:13:34;21.30;36.00
9083;DHT22;4577;48.704;9.000;2023-10-13T23:16:01;21.10;36.10
9083;DHT22;4577;48.704;9.000;2023-10-13T23:18:28;21.10;36.60
9083;DHT22;4577;48.704;9.000;2023-10-13T23:20:54;21.20;37.90
9083;DHT22;4577;48.704;9.000;2023-10-13T23:23:20;21.30;37.00
9083;DHT22;4577;48.704;9.000;2023-10-13T23:25:50;21.10;37.00
9083;DHT22;4577;48.704;9.000;2023-10-13T23:28:19;21.10;36.90
9083;DHT22;4577;48.704;9.000;2023-10-13T23:30:46;21.00;37.30
9083;DHT22;4577;48.704;9.000;2023-10-13T23:33:12;21.20;37.80
9083;DHT22;4577;48.704;9.000;2023-10-13T23:35:39;21.00;37.90
9083;DHT22;4577;48.704;9.000;2023-10-13T23:38:09;21.20;38.30
9083;DHT22;4577;48.704;9.000;2023-10-13T23:40:54;21.20;38.90
9083;DHT22;4577;48.704;9.000;2023-10-13T23:43:24;21.40;39.00
9083;DHT22;4577;48.704;9.000;2023-10-13T23:45:55;21.50;39.20
9083;DHT22;4577;48.704;9.000;2023-10-13T23:48:24;21.20;38.50
9083;DHT22;4577;48.704;9.000;2023-10-13T23:50:52;21.20;39.20
9083;DHT22;4577;48.704;9.000;2023-10-13T23:55:55;20.90;40.40
9083;DHT22;4577;48.704;9.000;2023-10-13T23:58:27;21.40;42.30
